Time;durP1;ratioP1;P1;durP2;ratioP2;P2;SDS_P1;SDS_P2;PMS_P1;PMS_P2;Temp;Humidity;BMP_temperature;BMP_pressure;BME280_temperature;BME280_humidity;BME280_pressure;Samples;Min_cycle;Max_cycle;Signal;HPM_P1;HPM_P2
2022/09/25 00:00:47;;;;;;;3.33;1.85;;;10.30;99.90;;;;;;5020649;28;20485;-64
2022/09/25 00:03:15;;;;;;;5.55;2.30;;;10.30;99.90;;;;;;4996458;28;20050;-64
2022/09/25 00:05:42;;;;;;;5.88;2.28;;;10.20;99.90;;;;;;5026022;28;20045;-63
2022/09/25 00:08:09;;;;;;;5.32;2.15;;;10.20;99.90;;;;;;5030089;28;20091;-63
2022/09/25 00:10:40;;;;;;;4.20;2.20;;;10.20;99.90;;;;;;5030620;28;20200;-63
2022/09/25 00:13:06;;;;;;;7.18;2.30;;;10.20;99.90;;;;;;5029077;28;20512;-63
2022/09/25 00:15:32;;;;;;;5.78;2.33;;;10.20;99.90;;;;;;5028671;28;20037;-63
2022/09/25 00:17:58;;;;;;;5.72;2.35;;;10.10;99.90;;;;;;5015515;28;20196;-64
2022/09/25 00:20:23;;;;;;;5.18;2.30;;;10.10;99.90;;;;;;4995488;28;20077;-64
2022/09/25 00:22:49;;;;;;;4.70;1.95;;;10.10;99.90;;;;;;5029585;28;20041;-63
2022/09/25 00:25:16;;;;;;;4.82;1.95;;;10.10;99.90;;;;;;5019474;28;20567;-64
2022/09/25 00:27:44;;;;;;;3.95;1.85;;;10.00;99.90;;;;;;5017484;28;20409;-64
2022/09/25 00:30:11;;;;;;;5.93;1.92;;;10.00;99.90;;;;;;5010688;28;20476;-63
2022/09/25 00:32:37;;;;;;;6.05;2.10;;;9.90;99.90;;;;;;5002160;28;20067;-63
2022/09/25 00:35:04;;;;;;;7.68;2.47;;;10.00;99.90;;;;;;5007900;28;20482;-63
2022/09/25 00:37:32;;;;;;;6.25;2.00;;;9.90;99.90;;;;;;5023343;28;20042;-64
2022/09/25 00:39:58;;;;;;;4.50;1.90;;;9.90;99.90;;;;;;5028398;28;20087;-64
2022/09/25 00:42:24;;;;;;;6.05;2.25;;;9.90;99.90;;;;;;5006400;28;20053;-63
2022/09/25 00:45:02;;;;;;;6.88;1.92;;;9.90;99.90;;;;;;5026900;28;20048;-64
2022/09/25 00:47:45;;;;;;;8.40;2.42;;;9.90;99.90;;;;;;5017173;28;20125;-64
2022/09/25 00:50:28;;;;;;;7.20;2.20;;;9.80;99.90;;;;;;5025937;28;20501;-63
2022/09/25 00:52:58;;;;;;;5.63;2.00;;;9.80;99.90;;;;;;5026743;28;20034;-63
2022/09/25 00:55:24;;;;;;;4.75;2.40;;;9.80;99.90;;;;;;5005332;28;20198;-63
2022/09/25 00:57:52;;;;;;;4.18;2.03;;;9.80;99.90;;;;;;5024538;28;20052;-63
2022/09/25 01:00:18;;;;;;;6.20;2.17;;;9.70;99.90;;;;;;5007214;28;20042;-63
2022/09/25 01:02:52;;;;;;;5.18;2.20;;;9.70;99.90;;;;;;5010092;28;20448;-65
2022/09/25 01:05:23;;;;;;;8.27;2.58;;;9.70;99.90;;;;;;5017100;28;20444;-64
2022/09/25 01:07:50;;;;;;;6.50;2.42;;;9.80;99.90;;;;;;5022737;28;20453;-64
2022/09/25 01:10:19;;;;;;;4.57;2.20;;;9.80;99.90;;;;;;5010377;28;20052;-64
2022/09/25 01:12:47;;;;;;;6.25;2.10;;;9.80;99.90;;;;;;4999860;28;20052;-65
2022/09/25 01:15:19;;;;;;;5.43;2.42;;;9.80;99.90;;;;;;5020838;28;20048;-64
2022/09/25 01:17:55;;;;;;;4.55;2.28;;;9.80;99.90;;;;;;5028591;28;20048;-64
2022/09/25 01:20:39;;;;;;;7.35;2.67;;;9.80;99.90;;;;;;5022020;28;20049;-63
2022/09/25 01:23:40;;;;;;;8.50;2.33;;;9.80;99.90;;;;;;5028836;28;20091;-64
2022/09/25 01:26:30;;;;;;;6.60;2.63;;;9.80;99.90;;;;;;5030439;28;20111;-64
2022/09/25 01:29:05;;;;;;;5.53;2.10;;;9.80;99.90;;;;;;5002332;28;20389;-64
2022/09/25 01:31:44;;;;;;;4.60;2.28;;;9.70;99.90;;;;;;5025279;28;20095;-64
2022/09/25 01:34:25;;;;;;;5.88;2.20;;;9.70;99.90;;;;;;5025556;28;20045;-64
2022/09/25 01:37:00;;;;;;;4.10;2.30;;;9.60;99.90;;;;;;5011447;28;20049;-63
2022/09/25 01:39:34;;;;;;;4.75;2.05;;;9.60;99.90;;;;;;5021839;28;20045;-63
2022/09/25 01:42:17;;;;;;;4.82;2.40;;;9.60;99.90;;;;;;5030425;28;20124;-64
2022/09/25 01:44:49;;;;;;;3.47;2.08;;;9.60;99.90;;;;;;5028443;28;20045;-64
2022/09/25 01:47:22;;;;;;;4.75;2.53;;;9.50;99.90;;;;;;4999605;28;20042;-63
2022/09/25 01:49:54;;;;;;;3.72;2.40;;;9.60;99.90;;;;;;5022515;28;20497;-63
2022/09/25 01:52:26;;;;;;;5.15;2.30;;;9.50;99.90;;;;;;5028247;28;20064;-63
2022/09/25 01:54:57;;;;;;;5.22;2.33;;;9.60;99.90;;;;;;5029144;28;20041;-63
2022/09/25 01:57:34;;;;;;;6.72;2.90;;;9.50;99.90;;;;;;5005207;28;20393;-63
2022/09/25 02:00:12;;;;;;;5.18;2.22;;;9.50;99.90;;;;;;5029692;28;20029;-63
2022/09/25 02:02:45;;;;;;;4.97;2.30;;;9.20;99.90;;;;;;5029620;28;20060;-64
2022/09/25 02:05:20;;;;;;;5.18;2.20;;;9.50;99.90;;;;;;5005743;28;20049;-63
2022/09/25 02:08:03;;;;;;;6.70;2.17;;;9.40;99.90;;;;;;5013781;28;20382;-63
2022/09/25 02:10:54;;;;;;;4.03;2.20;;;9.30;99.90;;;;;;5019493;28;20053;-63
2022/09/25 02:13:24;;;;;;;3.53;1.90;;;9.30;99.90;;;;;;5024359;28;20448;-63
2022/09/25 02:15:56;;;;;;;4.72;2.10;;;9.30;99.90;;;;;;5020010;28;20029;-63
2022/09/25 02:21:20;;;;;;;4.88;2.08;;;9.20;99.90;;;;;;5027405;28;20049;-63
2022/09/25 02:24:04;;;;;;;7.50;2.80;;;9.20;99.90;;;;;;5016191;28;20072;-63
2022/09/25 02:26:33;;;;;;;4.55;2.15;;;9.20;99.90;;;;;;5015222;28;20050;-63
2022/09/25 02:28:59;;;;;;;5.35;2.30;;;9.20;99.90;;;;;;5012373;28;21037;-64
2022/09/25 02:31:39;;;;;;;4.43;2.20;;;9.10;99.90;;;;;;5020443;28;20072;-63
2022/09/25 02:34:05;;;;;;;3.13;1.92;;;9.20;99.90;;;;;;5009320;28;20337;-63
2022/09/25 02:36:32;;;;;;;3.38;2.28;;;9.10;99.90;;;;;;5021367;28;20030;-63
2022/09/25 02:38:59;;;;;;;5.63;2.20;;;9.10;99.90;;;;;;5024150;28;20041;-63
2022/09/25 02:41:40;;;;;;;4.25;2.10;;;9.10;99.90;;;;;;5029938;28;20037;-63
2022/09/25 02:44:11;;;;;;;6.85;2.40;;;9.10;99.90;;;;;;4999674;28;20072;-63
2022/09/25 02:46:48;;;;;;;5.72;2.00;;;9.10;99.90;;;;;;5017860;28;20057;-64
2022/09/25 02:49:35;;;;;;;6.15;1.95;;;9.00;99.90;;;;;;5003480;28;20068;-63
2022/09/25 02:52:05;;;;;;;7.03;2.20;;;9.00;99.90;;;;;;5026317;28;20037;-63
2022/09/25 02:54:37;;;;;;;4.03;2.00;;;9.00;99.90;;;;;;5027762;28;20049;-63
2022/09/25 02:57:18;;;;;;;;;;;9.00;99.90;;;;;;5031330;28;20053;-63
2022/09/25 02:59:58;;;;;;;7.20;2.38;;;9.00;99.90;;;;;;5024245;28;19927;-64
2022/09/25 03:02:27;;;;;;;5.15;2.08;;;9.00;99.90;;;;;;5030969;28;20501;-64
2022/09/25 03:04:53;;;;;;;7.68;2.38;;;9.00;99.90;;;;;;5024547;28;20041;-63
2022/09/25 03:07:19;;;;;;;4.75;2.20;;;9.00;99.90;;;;;;5032332;28;20401;-63
2022/09/25 03:09:47;;;;;;;6.68;2.20;;;9.00;99.90;;;;;;5007635;28;20041;-63
2022/09/25 03:12:13;;;;;;;4.22;2.10;;;9.00;99.90;;;;;;5007743;28;20049;-63
2022/09/25 03:14:39;;;;;;;3.30;1.88;;;9.00;99.90;;;;;;5016789;28;20045;-63
2022/09/25 03:17:06;;;;;;;5.00;1.98;;;9.00;99.90;;;;;;5012096;28;20037;-63
2022/09/25 03:19:33;;;;;;;3.03;1.90;;;9.00;99.90;;;;;;5022445;28;20053;-64
2022/09/25 03:22:00;;;;;;;3.88;2.03;;;9.00;99.90;;;;;;5014232;28;20046;-63
2022/09/25 03:24:26;;;;;;;4.68;1.90;;;8.90;99.90;;;;;;5009087;28;20042;-63
2022/09/25 03:26:52;;;;;;;4.40;2.10;;;8.90;99.90;;;;;;5030101;28;20049;-63
2022/09/25 03:29:20;;;;;;;4.18;2.00;;;8.90;99.90;;;;;;5024021;28;20397;-63
2022/09/25 03:31:46;;;;;;;4.07;2.08;;;8.90;99.90;;;;;;4999361;28;20045;-63
2022/09/25 03:34:14;;;;;;;5.25;1.90;;;8.80;99.90;;;;;;5030907;28;20045;-63
2022/09/25 03:36:40;;;;;;;3.35;1.85;;;8.80;99.90;;;;;;5021019;28;20048;-63
2022/09/25 03:39:09;;;;;;;5.05;1.90;;;8.80;99.90;;;;;;5031155;28;20394;-63
2022/09/25 03:41:35;;;;;;;4.30;2.08;;;8.80;99.90;;;;;;5000982;28;20050;-63
2022/09/25 03:44:01;;;;;;;3.20;2.00;;;8.80;99.90;;;;;;5023453;28;20037;-63
2022/09/25 03:46:33;;;;;;;3.55;2.30;;;8.80;99.90;;;;;;5025434;28;20045;-64
2022/09/25 03:48:59;;;;;;;5.35;1.90;;;8.70;99.90;;;;;;5017091;28;20037;-63
2022/09/25 03:51:26;;;;;;;4.55;1.80;;;8.70;99.90;;;;;;5029856;28;20657;-63
2022/09/25 03:53:53;;;;;;;6.35;2.55;;;8.70;99.90;;;;;;5031490;28;20041;-63
2022/09/25 03:56:21;;;;;;;4.28;2.03;;;8.70;99.90;;;;;;5031764;28;20465;-63
2022/09/25 03:58:47;;;;;;;3.40;1.38;;;8.70;99.90;;;;;;5011671;28;20053;-63
2022/09/25 04:01:14;;;;;;;2.42;1.30;;;8.70;99.90;;;;;;5026059;28;20041;-64
2022/09/25 04:03:46;;;;;;;2.60;1.42;;;8.60;99.90;;;;;;5025146;28;20063;-63
2022/09/25 04:06:12;;;;;;;4.40;1.35;;;8.60;99.90;;;;;;5036010;28;20045;-64
2022/09/25 04:08:38;;;;;;;3.00;1.30;;;8.60;99.90;;;;;;5031190;28;20048;-63
2022/09/25 04:11:04;;;;;;;3.58;1.45;;;8.60;99.90;;;;;;5000003;28;20041;-63
2022/09/25 04:13:32;;;;;;;3.67;1.60;;;8.60;99.90;;;;;;5036129;28;20041;-64
2022/09/25 04:16:00;;;;;;;4.57;1.60;;;8.60;99.90;;;;;;5015658;28;20039;-64
2022/09/25 04:18:30;;;;;;;3.47;1.63;;;8.60;99.90;;;;;;5023460;28;20045;-63
2022/09/25 04:21:00;;;;;;;8.30;1.90;;;8.50;99.90;;;;;;5002274;28;20042;-63
2022/09/25 04:23:26;;;;;;;2.72;1.40;;;8.50;99.90;;;;;;5007394;28;20072;-63
2022/09/25 04:25:52;;;;;;;5.05;1.75;;;8.50;99.90;;;;;;5021848;28;20045;-63
2022/09/25 04:28:18;;;;;;;3.60;1.98;;;8.50;99.90;;;;;;5028376;28;20041;-64
2022/09/25 04:30:44;;;;;;;5.20;2.03;;;8.50;99.90;;;;;;5021155;28;20516;-63
2022/09/25 04:35:55;;;;;;;3.33;1.95;;;8.40;99.90;;;;;;5029101;28;20049;-64
2022/09/25 04:38:21;;;;;;;4.10;2.20;;;8.40;99.90;;;;;;5002247;28;20077;-64
2022/09/25 04:40:47;;;;;;;3.40;1.83;;;8.40;99.90;;;;;;5028845;28;20148;-64
2022/09/25 04:43:13;;;;;;;6.38;1.92;;;8.40;99.90;;;;;;5012915;28;20517;-64
2022/09/25 04:45:38;;;;;;;5.85;1.92;;;8.40;99.90;;;;;;5028867;28;20079;-64
2022/09/25 04:48:04;;;;;;;6.22;1.95;;;8.50;99.90;;;;;;5013651;28;20219;-64
2022/09/25 04:50:30;;;;;;;5.90;1.80;;;8.40;99.90;;;;;;5031160;28;20045;-64
2022/09/25 04:52:57;;;;;;;3.05;1.60;;;8.40;99.90;;;;;;5011252;28;20045;-63
2022/09/25 04:55:24;;;;;;;2.78;1.52;;;8.40;99.90;;;;;;5027458;28;20037;-64
2022/09/25 04:57:51;;;;;;;3.35;1.52;;;8.40;99.90;;;;;;5024207;28;20049;-64
2022/09/25 05:00:18;;;;;;;3.22;1.70;;;8.40;99.90;;;;;;5030279;28;20409;-64
2022/09/25 05:02:44;;;;;;;3.40;1.65;;;8.40;99.90;;;;;;5037699;28;20486;-63
2022/09/25 05:05:10;;;;;;;4.22;1.60;;;8.40;99.90;;;;;;5011040;28;20124;-64
2022/09/25 05:07:36;;;;;;;5.60;1.88;;;8.40;99.90;;;;;;5008990;28;20129;-64
2022/09/25 05:10:01;;;;;;;3.75;1.60;;;8.40;99.90;;;;;;5013336;28;20037;-64
2022/09/25 05:12:27;;;;;;;4.75;1.70;;;8.50;99.90;;;;;;5013386;28;20084;-64
2022/09/25 05:14:52;;;;;;;5.38;1.80;;;8.40;99.90;;;;;;5026961;28;20126;-64
2022/09/25 05:17:18;;;;;;;3.00;1.58;;;8.50;99.90;;;;;;5000686;28;20038;-63
2022/09/25 05:19:44;;;;;;;3.08;1.60;;;8.50;99.90;;;;;;5024073;28;20040;-64
2022/09/25 05:22:09;;;;;;;3.97;1.73;;;8.50;99.90;;;;;;5017962;28;20087;-64
2022/09/25 05:24:38;;;;;;;4.85;1.73;;;8.50;99.90;;;;;;5022902;28;20033;-64
2022/09/25 05:27:03;;;;;;;4.47;1.73;;;8.50;99.90;;;;;;5025532;28;20109;-64
2022/09/25 05:29:30;;;;;;;5.35;1.95;;;8.50;99.90;;;;;;5014567;28;20107;-63
2022/09/25 05:31:56;;;;;;;5.82;2.08;;;8.50;99.90;;;;;;5002791;28;20107;-63
2022/09/25 05:34:22;;;;;;;4.30;1.77;;;8.50;99.90;;;;;;5027921;28;20049;-63
2022/09/25 05:36:47;;;;;;;5.57;1.80;;;8.50;99.90;;;;;;5007993;28;20037;-64
2022/09/25 05:39:13;;;;;;;7.50;1.80;;;8.40;99.90;;;;;;5006633;28;20513;-63
2022/09/25 05:41:38;;;;;;;4.85;1.70;;;8.40;99.90;;;;;;5004862;28;20048;-63
2022/09/25 05:44:08;;;;;;;3.05;1.75;;;8.40;99.90;;;;;;5021942;28;20132;-64
2022/09/25 05:46:34;;;;;;;7.20;1.92;;;8.40;99.90;;;;;;5006143;28;20110;-64
2022/09/25 05:49:00;;;;;;;3.78;1.80;;;8.40;99.90;;;;;;5004904;28;20053;-64
2022/09/25 05:51:25;;;;;;;3.85;1.73;;;8.40;99.90;;;;;;5024361;28;20059;-64
2022/09/25 05:53:54;;;;;;;5.93;1.92;;;8.40;99.90;;;;;;5023816;28;20041;-64
2022/09/25 05:56:20;;;;;;;5.13;1.90;;;8.40;99.90;;;;;;5031696;28;20051;-64
2022/09/25 05:58:47;;;;;;;4.63;2.00;;;8.40;99.90;;;;;;4998433;28;20042;-64
2022/09/25 06:01:13;;;;;;;3.63;1.80;;;8.40;99.90;;;;;;5003921;28;20049;-64
2022/09/25 06:03:38;;;;;;;4.05;1.60;;;8.50;99.90;;;;;;5003095;28;20403;-64
2022/09/25 06:06:04;;;;;;;3.53;1.63;;;8.50;99.90;;;;;;5014238;28;20425;-64
2022/09/25 06:08:30;;;;;;;4.90;1.60;;;8.50;99.90;;;;;;5008485;28;20140;-64
2022/09/25 06:10:57;;;;;;;4.95;1.50;;;8.50;99.90;;;;;;5015298;28;20034;-64
2022/09/25 06:13:24;;;;;;;5.85;1.50;;;8.50;99.90;;;;;;5009602;28;20049;-64
2022/09/25 06:15:51;;;;;;;4.75;1.60;;;8.50;99.90;;;;;;5022998;28;20042;-64
2022/09/25 06:18:19;;;;;;;3.25;1.48;;;8.50;99.90;;;;;;5021305;28;20095;-64
2022/09/25 06:20:45;;;;;;;3.25;1.50;;;8.50;99.90;;;;;;4996141;28;20046;-64
2022/09/25 06:23:11;;;;;;;3.63;1.65;;;8.50;99.90;;;;;;5024248;28;20120;-64
2022/09/25 06:25:36;;;;;;;4.00;1.80;;;8.60;99.90;;;;;;5021147;28;20545;-63
2022/09/25 06:28:02;;;;;;;3.42;1.50;;;8.60;99.90;;;;;;5013232;28;20077;-63
2022/09/25 06:30:33;;;;;;;3.78;1.38;;;8.60;99.90;;;;;;5023163;28;20485;-63
2022/09/25 06:33:11;;;;;;;6.30;1.70;;;8.70;99.90;;;;;;5003012;28;20366;-64
2022/09/25 06:35:42;;;;;;;6.97;1.50;;;8.70;99.90;;;;;;5015483;28;20408;-63
2022/09/25 06:38:08;;;;;;;6.55;1.70;;;8.70;99.90;;;;;;5019912;28;20045;-63
2022/09/25 06:40:36;;;;;;;5.65;1.45;;;8.80;99.90;;;;;;5025671;28;20652;-64
2022/09/25 06:43:03;;;;;;;3.08;1.40;;;8.80;99.90;;;;;;5014921;28;20389;-63
2022/09/25 06:45:32;;;;;;;5.47;1.60;;;8.80;99.90;;;;;;5048821;28;20075;-64
2022/09/25 06:48:02;;;;;;;6.55;1.42;;;9.00;99.90;;;;;;5019854;28;20474;-63
2022/09/25 06:50:39;;;;;;;4.07;1.60;;;9.00;99.90;;;;;;5019764;28;20071;-64
2022/09/25 06:53:04;;;;;;;6.53;1.60;;;9.00;99.90;;;;;;5028256;28;20049;-64
2022/09/25 06:55:36;;;;;;;5.22;1.80;;;9.10;99.90;;;;;;5012957;28;20405;-63
2022/09/25 06:58:03;;;;;;;4.03;1.60;;;9.20;99.90;;;;;;5030258;28;20080;-64
2022/09/25 07:00:30;;;;;;;6.70;1.75;;;9.20;99.90;;;;;;5020434;28;20048;-63
2022/09/25 07:05:46;;;;;;;4.75;1.50;;;9.30;99.90;;;;;;5020919;28;20509;-63
2022/09/25 07:08:15;;;;;;;5.85;1.95;;;9.40;99.90;;;;;;5022024;28;20449;-64
2022/09/25 07:10:49;;;;;;;5.38;1.95;;;9.40;99.90;;;;;;5010205;28;20340;-64
2022/09/25 07:13:17;;;;;;;5.70;1.90;;;9.50;99.90;;;;;;5004482;28;20041;-64
2022/09/25 07:15:48;;;;;;;7.30;2.22;;;9.60;99.90;;;;;;5025159;28;20042;-64
2022/09/25 07:18:14;;;;;;;4.55;1.40;;;9.60;99.90;;;;;;5030162;28;20069;-64
2022/09/25 07:20:39;;;;;;;3.38;1.30;;;9.70;99.90;;;;;;5022570;28;20100;-64
2022/09/25 07:23:05;;;;;;;8.38;1.85;;;9.80;99.90;;;;;;5028136;28;20041;-64
2022/09/25 07:25:31;;;;;;;12.43;2.10;;;9.90;99.90;;;;;;5007131;28;20406;-64
2022/09/25 07:27:57;;;;;;;6.35;2.03;;;10.00;99.90;;;;;;5001753;28;20218;-64
2022/09/25 07:30:27;;;;;;;8.32;1.92;;;10.10;99.90;;;;;;5018725;28;20460;-64
2022/09/25 07:32:53;;;;;;;5.53;1.70;;;10.30;99.90;;;;;;5011112;28;20045;-64
2022/09/25 07:35:18;;;;;;;5.75;1.88;;;10.40;99.90;;;;;;5027739;28;20091;-64
2022/09/25 07:37:44;;;;;;;6.65;1.58;;;10.50;99.90;;;;;;5026909;28;20042;-64
2022/09/25 07:40:13;;;;;;;8.05;1.60;;;10.60;99.90;;;;;;5028915;28;20041;-64
2022/09/25 07:42:39;;;;;;;5.20;1.60;;;10.70;99.90;;;;;;4999463;28;20493;-64
2022/09/25 07:45:05;;;;;;;4.30;1.73;;;10.80;99.90;;;;;;5020819;28;20048;-64
2022/09/25 07:47:31;;;;;;;9.50;1.80;;;10.90;99.90;;;;;;5024416;28;20087;-64
2022/09/25 07:49:58;;;;;;;6.72;1.70;;;10.90;99.90;;;;;;5031430;28;20116;-64
2022/09/25 07:52:24;;;;;;;7.22;1.83;;;11.00;99.90;;;;;;5027712;28;20120;-63
2022/09/25 07:54:49;;;;;;;4.50;1.42;;;11.10;99.90;;;;;;5015728;28;20087;-63
2022/09/25 07:57:19;;;;;;;6.45;1.65;;;11.10;99.90;;;;;;5023349;28;20321;-63
2022/09/25 07:59:45;;;;;;;4.95;1.70;;;11.20;99.90;;;;;;5027673;28;20033;-63
2022/09/25 08:02:11;;;;;;;7.45;1.70;;;11.10;99.90;;;;;;5020477;28;20096;-63
2022/09/25 08:04:36;;;;;;;3.03;1.67;;;11.30;99.90;;;;;;5029092;28;20503;-63
2022/09/25 08:07:02;;;;;;;4.80;1.52;;;11.40;99.90;;;;;;5020673;28;20448;-63
2022/09/25 08:09:27;;;;;;;4.55;1.50;;;11.40;99.90;;;;;;5025223;28;20494;-63
2022/09/25 08:11:53;;;;;;;8.18;1.70;;;11.60;99.90;;;;;;5005596;28;20400;-63
2022/09/25 08:14:19;;;;;;;6.22;1.60;;;11.60;99.90;;;;;;5019544;28;20061;-63
2022/09/25 08:16:46;;;;;;;8.60;1.50;;;11.60;99.90;;;;;;5006186;28;20053;-63
2022/09/25 08:19:12;;;;;;;6.03;1.35;;;11.70;99.90;;;;;;5006116;28;20091;-63
2022/09/25 08:21:37;;;;;;;6.00;1.58;;;11.70;99.90;;;;;;5026586;28;20041;-63
2022/09/25 08:24:03;;;;;;;6.80;1.73;;;11.80;99.90;;;;;;5022954;28;20049;-64
2022/09/25 08:26:29;;;;;;;7.60;1.40;;;11.80;99.90;;;;;;5030954;28;20041;-63
2022/09/25 08:28:55;;;;;;;9.75;1.90;;;11.80;99.90;;;;;;5024335;28;20033;-63
2022/09/25 08:31:20;;;;;;;4.10;1.25;;;11.90;99.90;;;;;;5005639;28;20076;-63
2022/09/25 08:33:48;;;;;;;6.65;1.38;;;11.90;99.90;;;;;;5030515;28;20045;-63
2022/09/25 08:36:15;;;;;;;6.53;1.35;;;11.90;99.90;;;;;;5027909;28;20072;-63
2022/09/25 08:38:41;;;;;;;6.07;1.30;;;11.90;99.90;;;;;;4999658;28;20096;-63
2022/09/25 08:41:33;;;;;;;9.98;1.40;;;12.00;99.90;;;;;;5020599;28;20104;-63
2022/09/25 08:44:17;;;;;;;6.45;1.25;;;12.10;99.90;;;;;;5029039;28;21490;-63
2022/09/25 08:50:08;;;;;;;9.18;1.52;;;12.20;99.90;;;;;;5010379;28;20055;-63
2022/09/25 08:52:35;;;;;;;3.65;1.20;;;12.20;99.90;;;;;;5033784;28;20065;-63
2022/09/25 08:55:00;;;;;;;6.45;1.33;;;12.30;99.90;;;;;;5010087;28;20037;-63
2022/09/25 08:57:36;;;;;;;6.57;1.55;;;12.30;99.90;;;;;;5005800;28;20048;-63
2022/09/25 09:00:25;;;;;;;6.15;1.40;;;12.40;99.90;;;;;;5029371;28;20029;-63
2022/09/25 09:02:56;;;;;;;5.18;1.33;;;12.40;99.90;;;;;;5021571;28;20045;-63
2022/09/25 09:05:32;;;;;;;7.55;1.60;;;12.50;99.90;;;;;;5021043;28;20046;-63
2022/09/25 09:08:01;;;;;;;6.70;1.73;;;12.50;99.90;;;;;;5024300;28;20072;-63
2022/09/25 09:10:50;;;;;;;3.75;1.25;;;12.60;99.90;;;;;;5028993;28;20040;-63
2022/09/25 09:13:35;;;;;;;6.43;1.45;;;12.60;99.90;;;;;;5031439;28;20045;-63
2022/09/25 09:16:06;;;;;;;4.97;1.25;;;12.60;99.90;;;;;;5009769;28;20045;-63
2022/09/25 09:18:37;;;;;;;6.35;1.17;;;12.70;99.90;;;;;;5004863;28;20045;-63
2022/09/25 09:21:30;;;;;;;6.25;1.20;;;12.80;99.90;;;;;;4999046;28;20044;-63
2022/09/25 09:24:10;;;;;;;;;;;12.90;99.90;;;;;;5032137;28;20060;-63
2022/09/25 09:26:56;;;;;;;4.43;1.10;;;13.00;99.90;;;;;;5024144;28;19925;-63
2022/09/25 09:29:47;;;;;;;5.00;1.13;;;13.20;99.90;;;;;;5019525;28;20041;-63
2022/09/25 09:32:36;;;;;;;5.00;1.15;;;13.20;99.90;;;;;;5018547;28;20071;-63
2022/09/25 09:35:04;;;;;;;5.63;1.35;;;13.30;99.90;;;;;;5025623;28;20040;-63
2022/09/25 09:37:39;;;;;;;4.82;1.50;;;13.50;99.90;;;;;;5009155;28;20053;-63
2022/09/25 09:40:20;;;;;;;6.18;1.60;;;13.70;99.90;;;;;;5017203;28;20044;-63
2022/09/25 09:43:14;;;;;;;4.78;1.23;;;13.90;99.90;;;;;;5017080;28;20096;-63
2022/09/25 09:45:57;;;;;;;6.38;1.30;;;14.00;99.90;;;;;;5018066;28;20128;-63
2022/09/25 09:48:39;;;;;;;6.53;1.13;;;14.00;99.90;;;;;;5031289;28;20033;-64
2022/09/25 09:51:12;;;;;;;5.93;0.95;;;14.00;99.90;;;;;;5026243;28;20040;-63
2022/09/25 09:53:43;;;;;;;3.67;1.08;;;14.00;99.90;;;;;;5028571;28;20405;-63
2022/09/25 09:56:13;;;;;;;4.90;1.00;;;14.00;99.90;;;;;;5025435;28;20080;-64
2022/09/25 09:59:11;;;;;;;8.23;1.30;;;14.20;99.90;;;;;;5007221;28;20237;-63
2022/09/25 10:01:39;;;;;;;7.63;1.40;;;14.60;99.90;;;;;;5004764;28;20088;-63
2022/09/25 10:04:17;;;;;;;5.35;1.48;;;14.70;99.90;;;;;;5027393;28;20077;-64
2022/09/25 10:07:21;;;;;;;5.50;1.30;;;14.70;99.90;;;;;;5022234;28;20042;-63
2022/09/25 10:09:49;;;;;;;4.68;1.00;;;14.60;99.90;;;;;;4993643;28;20428;-63
2022/09/25 10:12:27;;;;;;;1.83;0.80;;;14.40;99.90;;;;;;5024806;28;20033;-63
2022/09/25 10:14:55;;;;;;;2.80;0.90;;;14.20;99.90;;;;;;5023033;28;20047;-62
2022/09/25 10:17:22;;;;;;;5.30;1.40;;;14.00;99.90;;;;;;5023186;28;20080;-62
2022/09/25 10:19:54;;;;;;;5.40;1.20;;;13.90;99.90;;;;;;5037507;28;20086;-62
2022/09/25 10:22:32;;;;;;;6.55;1.27;;;13.80;99.90;;;;;;5028685;28;20333;-62
2022/09/25 10:25:04;;;;;;;2.83;1.00;;;13.70;99.90;;;;;;5027795;28;20112;-63
2022/09/25 10:27:29;;;;;;;3.67;1.00;;;13.70;99.90;;;;;;5028870;28;20477;-63
2022/09/25 10:30:01;;;;;;;6.97;1.42;;;13.60;99.90;;;;;;5016958;28;20072;-63
2022/09/25 10:32:28;;;;;;;3.20;1.00;;;13.50;99.90;;;;;;5027333;28;20514;-63
2022/09/25 10:34:54;;;;;;;4.90;1.60;;;13.50;99.90;;;;;;5009828;28;20041;-63
2022/09/25 10:37:21;;;;;;;3.53;1.33;;;13.50;99.90;;;;;;5024206;28;20126;-63
2022/09/25 10:40:34;;;;;;;2.95;0.98;;;13.40;99.90;;;;;;5027023;28;20049;-63
2022/09/25 10:43:02;;;;;;;;;;;13.40;99.90;;;;;;4994073;28;20053;-63
2022/09/25 10:45:31;;;;;;;3.50;1.20;;;13.40;99.90;;;;;;5020801;28;19960;-63
2022/09/25 10:51:08;;;;;;;2.85;0.80;;;13.40;99.90;;;;;;4978346;28;20388;-63
2022/09/25 10:53:34;;;;;;;3.25;0.93;;;13.40;99.90;;;;;;5025256;28;20060;-63
2022/09/25 10:56:11;;;;;;;4.38;1.50;;;13.40;99.90;;;;;;5000960;28;20530;-63
2022/09/25 10:58:43;;;;;;;3.70;1.00;;;13.40;99.90;;;;;;5028178;28;20112;-63
2022/09/25 11:01:12;;;;;;;;;;;13.40;99.90;;;;;;5021000;28;20120;-63
2022/09/25 11:03:58;;;;;;;1.35;0.90;;;13.50;99.90;;;;;;5023299;28;20016;-63
2022/09/25 11:06:27;;;;;;;3.05;0.90;;;13.50;99.90;;;;;;5027335;28;20370;-63
2022/09/25 11:09:07;;;;;;;1.13;0.77;;;13.60;99.90;;;;;;5012650;28;20037;-63
2022/09/25 11:11:33;;;;;;;3.22;1.40;;;13.70;99.90;;;;;;5020261;28;20037;-63
2022/09/25 11:14:02;;;;;;;3.60;0.98;;;13.70;99.90;;;;;;5025766;28;20056;-62
2022/09/25 11:16:50;;;;;;;5.07;1.08;;;13.80;99.90;;;;;;5012441;28;20053;-62
2022/09/25 11:19:21;;;;;;;3.95;1.23;;;13.90;99.90;;;;;;5029648;28;20057;-62
2022/09/25 11:22:06;;;;;;;4.35;1.33;;;13.90;99.90;;;;;;5010946;28;20041;-63
2022/09/25 11:24:41;;;;;;;1.77;0.80;;;14.10;99.90;;;;;;5031447;28;20116;-62
2022/09/25 11:27:30;;;;;;;3.28;1.10;;;14.20;99.90;;;;;;5031817;28;20487;-62
2022/09/25 11:30:09;;;;;;;0.70;0.70;;;14.40;99.90;;;;;;5093199;22;20047;-77
2022/09/25 11:32:43;;;;;;;2.45;0.90;;;14.70;99.90;;;;;;5073962;28;20150;-77
2022/09/25 11:35:33;;;;;;;0.95;0.70;;;14.90;99.90;;;;;;5069691;28;20044;-76
2022/09/25 11:38:09;;;;;;;1.20;0.65;;;15.10;99.90;;;;;;5064874;28;20089;-77
2022/09/25 11:44:00;;;;;;;0.88;0.80;;;15.40;99.90;;;;;;5044215;28;20159;-77
2022/09/25 11:47:14;;;;;;;1.90;0.70;;;15.70;99.90;;;;;;5052308;28;20406;-77
2022/09/25 11:49:41;;;;;;;1.40;0.60;;;15.70;99.90;;;;;;5013012;28;20047;-76
2022/09/25 11:52:29;;;;;;;1.88;0.80;;;15.70;99.90;;;;;;5050916;28;20052;-76
2022/09/25 11:55:17;;;;;;;3.22;0.90;;;15.80;99.90;;;;;;5038966;28;20114;-77
2022/09/25 11:57:54;;;;;;;3.70;0.80;;;15.80;99.90;;;;;;5054988;28;20037;-76
2022/09/25 12:00:25;;;;;;;1.85;0.80;;;15.90;99.90;;;;;;5071954;28;20082;-76
2022/09/25 12:03:21;;;;;;;2.17;1.13;;;16.10;99.90;;;;;;5047928;28;20041;-76
2022/09/25 12:06:13;;;;;;;2.38;0.80;;;16.10;99.90;;;;;;5045384;28;20041;-76
2022/09/25 12:09:00;;;;;;;4.70;1.00;;;16.20;99.90;;;;;;5043593;28;20044;-75
2022/09/25 12:11:44;;;;;;;1.90;0.80;;;16.40;99.90;;;;;;5052500;28;20041;-77
2022/09/25 12:14:32;;;;;;;1.48;0.90;;;16.50;99.90;;;;;;5043549;28;20044;-77
2022/09/25 12:17:26;;;;;;;2.70;1.40;;;16.60;99.90;;;;;;5048290;28;20044;-76
2022/09/25 12:20:13;;;;;;;5.75;1.17;;;16.90;99.90;;;;;;5027707;28;20049;-77
2022/09/25 12:22:56;;;;;;;3.05;0.93;;;17.00;99.90;;;;;;5054458;28;20071;-76
2022/09/25 12:25:30;;;;;;;3.05;0.95;;;16.90;99.90;;;;;;5048218;28;20098;-76
2022/09/25 12:28:03;;;;;;;4.30;1.08;;;16.60;99.90;;;;;;5045617;28;20517;-76
2022/09/25 12:31:13;;;;;;;4.65;1.10;;;16.40;99.90;;;;;;5066100;28;20076;-76
2022/09/25 12:33:44;;;;;;;3.15;1.00;;;16.10;99.90;;;;;;5053232;28;20060;-77
2022/09/25 12:36:15;;;;;;;3.13;1.10;;;15.90;99.90;;;;;;5042768;28;20094;-78
2022/09/25 12:39:00;;;;;;;5.28;1.02;;;15.80;99.90;;;;;;5078815;28;20044;-78
2022/09/25 12:41:40;;;;;;;2.22;0.98;;;15.60;99.90;;;;;;5063587;28;20048;-78
2022/09/25 12:44:23;;;;;;;5.35;1.30;;;15.40;99.90;;;;;;5066995;28;20545;-78
2022/09/25 12:47:32;;;;;;;3.03;1.20;;;15.30;99.90;;;;;;5050642;28;20033;-78
2022/09/25 12:50:08;;;;;;;2.03;0.93;;;15.10;99.90;;;;;;5004378;28;20120;-79
2022/09/25 12:52:41;;;;;;;4.53;1.27;;;15.10;99.90;;;;;;5055685;28;20090;-77
2022/09/25 12:55:18;;;;;;;2.38;1.10;;;14.90;99.90;;;;;;5054405;28;20552;-78
2022/09/25 12:57:58;;;;;;;4.28;1.20;;;15.00;99.90;;;;;;5062514;28;20044;-79
2022/09/25 13:00:28;;;;;;;2.97;0.93;;;14.90;99.90;;;;;;5067200;28;20036;-79
2022/09/25 13:03:05;;;;;;;6.38;1.45;;;14.90;99.90;;;;;;5053204;28;20037;-78
2022/09/25 13:06:06;;;;;;;13.73;1.95;;;15.00;99.90;;;;;;5056137;28;20482;-78
2022/09/25 13:08:54;;;;;;;7.88;1.45;;;15.20;99.90;;;;;;5019737;28;20076;-78
2022/09/25 13:11:38;;;;;;;6.25;1.42;;;15.30;99.90;;;;;;5060669;28;20044;-78
2022/09/25 13:14:10;;;;;;;6.72;1.40;;;15.30;99.90;;;;;;5082530;28;20453;-77
2022/09/25 13:16:36;;;;;;;6.57;1.42;;;15.30;99.90;;;;;;5083577;28;20076;-79
2022/09/25 13:19:28;;;;;;;7.32;1.38;;;15.20;99.90;;;;;;5044829;28;20071;-78
2022/09/25 13:22:07;;;;;;;4.40;1.02;;;15.10;99.90;;;;;;5070243;28;20036;-78
2022/09/25 13:24:56;;;;;;;5.32;1.40;;;15.00;99.90;;;;;;5067938;28;20047;-78
2022/09/25 13:27:24;;;;;;;1.52;0.90;;;14.90;99.90;;;;;;5050235;28;20043;-78
2022/09/25 13:30:00;;;;;;;2.22;0.90;;;14.90;99.90;;;;;;5066694;28;20068;-78
2022/09/25 13:32:33;;;;;;;0.82;0.80;;;14.80;99.90;;;;;;5053818;28;20400;-78
2022/09/25 13:35:04;;;;;;;2.28;0.95;;;14.80;99.90;;;;;;5067887;28;20072;-77
2022/09/25 13:37:36;;;;;;;2.08;1.02;;;14.80;99.90;;;;;;5061392;28;20041;-77